createdAt,value
2018-05-21T00:00:52.093Z,1005.84
2018-05-21T00:01:52.063Z,1005.80
2018-05-21T00:02:52.042Z,1005.80
2018-05-21T00:03:52.022Z,1005.79
2018-05-21T00:04:51.984Z,1005.78
2018-05-21T00:05:51.968Z,1005.80
2018-05-21T00:06:51.947Z,1005.75
2018-05-21T00:07:51.918Z,1005.79
2018-05-21T00:08:51.898Z,1005.82
2018-05-21T00:09:51.874Z,1005.79
2018-05-21T00:10:51.847Z,1005.84
2018-05-21T00:11:51.831Z,1005.81
2018-05-21T00:12:51.795Z,1005.89
2018-05-21T00:13:51.781Z,1005.88
2018-05-21T00:14:51.750Z,1005.86
2018-05-21T00:15:51.730Z,1005.81
2018-05-21T00:16:51.700Z,1005.79
2018-05-21T00:17:51.680Z,1005.82
2018-05-21T00:18:51.649Z,1005.80
2018-05-21T00:19:51.622Z,1005.80
2018-05-21T00:20:51.626Z,1005.78
2018-05-21T00:21:51.577Z,1005.78
2018-05-21T00:22:51.561Z,1005.79
2018-05-21T00:23:51.537Z,1005.77
2018-05-21T00:24:51.500Z,1005.75
2018-05-21T00:25:51.490Z,1005.73
2018-05-21T00:26:51.457Z,1005.76
2018-05-21T00:27:51.441Z,1005.73
2018-05-21T00:28:51.410Z,1005.74
2018-05-21T00:29:51.392Z,1005.74
2018-05-21T00:30:51.360Z,1005.72
2018-05-21T00:31:51.336Z,1005.72
2018-05-21T00:32:51.317Z,1005.73
2018-05-21T00:33:51.283Z,1005.70
2018-05-21T00:34:51.262Z,1005.72
2018-05-21T00:35:51.238Z,1005.69
2018-05-21T00:36:51.218Z,1005.70
2018-05-21T00:37:51.188Z,1005.72
2018-05-21T00:38:51.169Z,1005.69
2018-05-21T00:39:51.152Z,1005.73
2018-05-21T00:40:51.114Z,1005.69
2018-05-21T00:41:51.098Z,1005.72
2018-05-21T00:42:51.067Z,1005.68
2018-05-21T00:43:51.054Z,1005.72
2018-05-21T00:44:51.017Z,1005.68
2018-05-21T00:45:50.996Z,1005.67
2018-05-21T00:46:50.971Z,1005.64
2018-05-21T00:47:50.954Z,1005.61
2018-05-21T00:48:50.919Z,1005.58
2018-05-21T00:49:50.894Z,1005.59
2018-05-21T00:50:50.874Z,1005.59
2018-05-21T00:51:50.852Z,1005.54
2018-05-21T00:52:50.824Z,1005.61
2018-05-21T00:53:50.798Z,1005.58
2018-05-21T00:54:50.779Z,1005.60
2018-05-21T00:55:50.752Z,1005.57
2018-05-21T00:56:50.728Z,1005.55
2018-05-21T00:57:50.702Z,1005.55
2018-05-21T00:58:50.678Z,1005.56
2018-05-21T00:59:50.654Z,1005.55
2018-05-21T01:00:50.622Z,1005.55
2018-05-21T01:01:50.605Z,1005.54
2018-05-21T01:02:50.581Z,1005.55
2018-05-21T01:03:50.554Z,1005.54
2018-05-21T01:04:50.534Z,1005.55
2018-05-21T01:05:50.513Z,1005.52
2018-05-21T01:06:50.484Z,1005.50
2018-05-21T01:07:50.458Z,1005.50
2018-05-21T01:08:50.431Z,1005.53
2018-05-21T01:09:50.417Z,1005.46
2018-05-21T01:10:50.385Z,1005.51
2018-05-21T01:11:50.362Z,1005.52
2018-05-21T01:12:50.335Z,1005.52
2018-05-21T01:13:50.342Z,1005.46
2018-05-21T01:14:50.287Z,1005.49
2018-05-21T01:15:50.321Z,1005.48
2018-05-21T01:16:50.241Z,1005.46
2018-05-21T01:17:50.211Z,1005.43
2018-05-21T01:18:50.193Z,1005.45
2018-05-21T01:19:50.172Z,1005.44
2018-05-21T01:20:50.133Z,1005.40
2018-05-21T01:21:50.112Z,1005.45
2018-05-21T01:22:50.085Z,1005.43
2018-05-21T01:23:50.072Z,1005.41
2018-05-21T01:24:50.046Z,1005.38
2018-05-21T01:25:50.059Z,1005.40
2018-05-21T01:26:49.994Z,1005.38
2018-05-21T01:27:49.968Z,1005.39
2018-05-21T01:28:49.945Z,1005.36
2018-05-21T01:29:49.914Z,1005.38
2018-05-21T01:30:49.895Z,1005.38
2018-05-21T01:31:49.869Z,1005.33
2018-05-21T01:32:49.839Z,1005.35
2018-05-21T01:33:49.824Z,1005.32
2018-05-21T01:34:49.792Z,1005.31
2018-05-21T01:35:49.766Z,1005.30
2018-05-21T01:36:49.746Z,1005.29
2018-05-21T01:37:49.723Z,1005.27
2018-05-21T01:38:49.704Z,1005.27
2018-05-21T01:39:49.666Z,1005.24
2018-05-21T01:40:49.658Z,1005.27
2018-05-21T01:41:49.621Z,1005.27
2018-05-21T01:42:49.599Z,1005.32
2018-05-21T01:43:49.581Z,1005.30
2018-05-21T01:44:49.541Z,1005.30
2018-05-21T01:45:49.535Z,1005.28
2018-05-21T01:46:49.492Z,1005.28
2018-05-21T01:47:49.475Z,1005.26
2018-05-21T01:48:49.444Z,1005.26
2018-05-21T01:49:49.429Z,1005.29
2018-05-21T01:50:49.399Z,1005.26
2018-05-21T01:51:49.376Z,1005.24
2018-05-21T01:52:49.354Z,1005.26
2018-05-21T01:53:49.329Z,1005.27
2018-05-21T01:54:49.301Z,1005.22
2018-05-21T01:55:49.275Z,1005.26
2018-05-21T01:56:49.253Z,1005.25
2018-05-21T01:57:49.227Z,1005.22
2018-05-21T01:58:49.202Z,1005.22
2018-05-21T01:59:49.181Z,1005.23
2018-05-21T02:00:49.149Z,1005.22
2018-05-21T02:01:49.131Z,1005.24
2018-05-21T02:02:49.106Z,1005.22
2018-05-21T02:03:49.084Z,1005.26
2018-05-21T02:04:49.050Z,1005.23
2018-05-21T02:05:49.032Z,1005.20
2018-05-21T02:06:49.005Z,1005.22
2018-05-21T02:07:48.978Z,1005.22
2018-05-21T02:08:48.952Z,1005.21
2018-05-21T02:09:48.927Z,1005.22
2018-05-21T02:10:48.909Z,1005.23
2018-05-21T02:11:48.891Z,1005.25
2018-05-21T02:12:48.853Z,1005.20
2018-05-21T02:13:48.833Z,1005.23
2018-05-21T02:14:48.804Z,1005.19
2018-05-21T02:15:48.780Z,1005.20
2018-05-21T02:16:48.759Z,1005.16
2018-05-21T02:17:48.731Z,1005.18
2018-05-21T02:18:48.710Z,1005.16
2018-05-21T02:19:48.677Z,1005.17
2018-05-21T02:20:48.656Z,1005.17
2018-05-21T02:21:48.637Z,1005.20
2018-05-21T02:22:48.613Z,1005.18
2018-05-21T02:23:48.581Z,1005.16
2018-05-21T02:24:48.560Z,1005.20
2018-05-21T02:25:48.530Z,1005.16
2018-05-21T02:26:48.510Z,1005.10
2018-05-21T02:27:48.482Z,1005.09
2018-05-21T02:28:48.459Z,1005.09
2018-05-21T02:29:48.437Z,1005.08
2018-05-21T02:30:48.405Z,1005.08
2018-05-21T02:31:48.388Z,1005.14
2018-05-21T02:32:48.359Z,1005.11
2018-05-21T02:33:48.332Z,1005.13
2018-05-21T02:34:48.317Z,1005.10
2018-05-21T02:35:48.281Z,1005.11
2018-05-21T02:36:48.262Z,1005.12
2018-05-21T02:37:48.233Z,1005.09
2018-05-21T02:38:48.214Z,1005.09
2018-05-21T02:39:48.180Z,1005.09
2018-05-21T02:40:48.170Z,1005.12
2018-05-21T02:41:48.141Z,1005.13
2018-05-21T02:42:48.118Z,1005.16
2018-05-21T02:43:48.088Z,1005.11
2018-05-21T02:44:48.059Z,1005.14
2018-05-21T02:45:48.039Z,1005.12
2018-05-21T02:46:48.016Z,1005.13
2018-05-21T02:47:47.989Z,1005.13
2018-05-21T02:48:47.962Z,1005.11
2018-05-21T02:49:48.010Z,1005.10
2018-05-21T02:50:47.906Z,1005.05
2018-05-21T02:51:47.891Z,1005.05
2018-05-21T02:52:47.859Z,1005.02
2018-05-21T02:53:47.840Z,1004.99
2018-05-21T02:54:47.809Z,1005.00
2018-05-21T02:55:47.792Z,1004.99
2018-05-21T02:56:47.756Z,1004.99
2018-05-21T02:57:47.822Z,1005.02
2018-05-21T02:58:47.711Z,1005.00
2018-05-21T02:59:47.685Z,1005.02
2018-05-21T03:00:47.662Z,1004.99
2018-05-21T03:01:47.693Z,1005.01
2018-05-21T03:02:47.611Z,1005.03
2018-05-21T03:03:47.640Z,1005.04
2018-05-21T03:04:47.561Z,1005.01
2018-05-21T03:05:47.539Z,1005.00
2018-05-21T03:06:47.511Z,1004.99
2018-05-21T03:07:47.496Z,1004.99
2018-05-21T03:08:47.465Z,1005.00
2018-05-21T03:09:47.446Z,1005.01
2018-05-21T03:10:47.413Z,1004.96
2018-05-21T03:11:47.394Z,1004.97
2018-05-21T03:12:47.367Z,1004.97
2018-05-21T03:13:47.336Z,1004.96
2018-05-21T03:14:47.310Z,1004.98
2018-05-21T03:15:47.286Z,1004.95
2018-05-21T03:16:47.268Z,1005.00
2018-05-21T03:17:47.233Z,1004.96
2018-05-21T03:18:47.217Z,1004.98
2018-05-21T03:19:47.193Z,1004.93
2018-05-21T03:20:47.164Z,1004.94
2018-05-21T03:21:47.146Z,1004.91
2018-05-21T03:22:47.115Z,1004.92
2018-05-21T03:23:47.089Z,1004.94
2018-05-21T03:24:47.066Z,1004.91
2018-05-21T03:25:47.039Z,1004.91
2018-05-21T03:26:47.017Z,1004.96
2018-05-21T03:27:46.987Z,1004.94
2018-05-21T03:28:46.964Z,1004.91
2018-05-21T03:29:46.936Z,1004.89
2018-05-21T03:30:46.910Z,1004.90
2018-05-21T03:31:46.900Z,1004.87
2018-05-21T03:32:46.861Z,1004.88
2018-05-21T03:33:46.835Z,1004.88
2018-05-21T03:34:46.816Z,1004.88
2018-05-21T03:35:46.785Z,1004.88
2018-05-21T03:36:46.767Z,1004.88
2018-05-21T03:37:46.738Z,1004.91
2018-05-21T03:38:46.713Z,1004.89
2018-05-21T03:39:46.691Z,1004.87
2018-05-21T03:40:46.659Z,1004.89
2018-05-21T03:41:46.641Z,1004.85
2018-05-21T03:42:46.615Z,1004.89
2018-05-21T03:43:46.584Z,1004.89
2018-05-21T03:44:46.569Z,1004.85
2018-05-21T03:45:46.539Z,1004.90
2018-05-21T03:46:46.510Z,1004.87
2018-05-21T03:47:46.490Z,1004.88
2018-05-21T03:48:46.461Z,1004.87
2018-05-21T03:49:46.438Z,1004.90
2018-05-21T03:50:46.417Z,1004.89
2018-05-21T03:51:46.391Z,1004.86
2018-05-21T03:52:46.363Z,1004.89
2018-05-21T03:53:46.342Z,1004.88
2018-05-21T03:54:46.311Z,1004.86
2018-05-21T03:55:46.282Z,1004.87
2018-05-21T03:56:46.269Z,1004.90
2018-05-21T03:57:46.237Z,1004.85
2018-05-21T03:58:46.217Z,1004.89
2018-05-21T03:59:46.193Z,1004.90
2018-05-21T04:00:46.158Z,1004.88
2018-05-21T04:01:46.146Z,1004.90
2018-05-21T04:02:46.108Z,1004.88
2018-05-21T04:03:46.086Z,1004.85
2018-05-21T04:04:46.062Z,1004.80
2018-05-21T04:05:46.034Z,1004.83
2018-05-21T04:06:46.014Z,1004.81
2018-05-21T04:07:47.210Z,1004.85
2018-05-21T04:08:46.771Z,1004.84
2018-05-21T04:09:46.760Z,1004.85
2018-05-21T04:10:46.733Z,1004.85
2018-05-21T04:11:46.761Z,1004.83
2018-05-21T04:12:46.369Z,1004.82
2018-05-21T04:13:46.853Z,1004.83
2018-05-21T04:14:45.811Z,1004.82
2018-05-21T04:15:45.793Z,1004.81
2018-05-21T04:16:45.768Z,1004.76
2018-05-21T04:17:45.740Z,1004.77
2018-05-21T04:18:45.790Z,1004.78
2018-05-21T04:19:45.687Z,1004.78
2018-05-21T04:20:45.668Z,1004.75
2018-05-21T04:21:45.635Z,1004.72
2018-05-21T04:22:45.616Z,1004.73
2018-05-21T04:23:45.596Z,1004.75
2018-05-21T04:24:45.560Z,1004.72
2018-05-21T04:25:45.548Z,1004.75
2018-05-21T04:26:45.507Z,1004.74
2018-05-21T04:27:45.492Z,1004.73
2018-05-21T04:28:45.464Z,1004.67
2018-05-21T04:29:45.430Z,1004.70
2018-05-21T04:30:45.413Z,1004.67
2018-05-21T04:31:45.395Z,1004.70
2018-05-21T04:32:45.355Z,1004.68
2018-05-21T04:33:45.344Z,1004.64
2018-05-21T04:34:45.305Z,1004.68
2018-05-21T04:35:45.296Z,1004.69
2018-05-21T04:36:45.255Z,1004.69
2018-05-21T04:37:45.238Z,1004.68
2018-05-21T04:38:45.215Z,1004.69
2018-05-21T04:39:45.189Z,1004.68
2018-05-21T04:40:45.166Z,1004.71
2018-05-21T04:41:45.142Z,1004.72
2018-05-21T04:42:45.110Z,1004.67
2018-05-21T04:43:45.091Z,1004.69
2018-05-21T04:44:45.060Z,1004.65
2018-05-21T04:45:45.042Z,1004.60
2018-05-21T04:46:45.010Z,1004.63
2018-05-21T04:47:44.988Z,1004.64
2018-05-21T04:48:44.961Z,1004.62
2018-05-21T04:49:44.933Z,1004.66
2018-05-21T04:50:44.914Z,1004.64
2018-05-21T04:51:44.891Z,1004.56
2018-05-21T04:52:44.856Z,1004.54
2018-05-21T04:53:44.836Z,1004.60
2018-05-21T04:54:44.814Z,1004.56
2018-05-21T04:55:44.784Z,1004.53
2018-05-21T04:56:44.765Z,1004.54
2018-05-21T04:57:44.735Z,1004.58
2018-05-21T04:58:44.708Z,1004.54
2018-05-21T04:59:44.684Z,1004.58
2018-05-21T05:00:44.658Z,1004.55
2018-05-21T05:01:44.640Z,1004.54
2018-05-21T05:02:44.607Z,1004.54
2018-05-21T05:03:44.592Z,1004.52
2018-05-21T05:04:44.571Z,1004.51
2018-05-21T05:05:44.531Z,1004.51
2018-05-21T05:06:44.513Z,1004.52
2018-05-21T05:07:44.497Z,1004.52
2018-05-21T05:08:44.471Z,1004.50
2018-05-21T05:09:44.453Z,1004.53
2018-05-21T05:10:44.419Z,1004.51
2018-05-21T05:11:44.394Z,1004.55
2018-05-21T05:12:44.365Z,1004.58
2018-05-21T05:13:44.338Z,1004.58
2018-05-21T05:14:44.314Z,1004.58
2018-05-21T05:15:44.285Z,1004.57
2018-05-21T05:16:44.268Z,1004.61
2018-05-21T05:17:44.246Z,1004.55
2018-05-21T05:18:44.217Z,1004.58
2018-05-21T05:19:44.193Z,1004.55
2018-05-21T05:20:44.158Z,1004.55
2018-05-21T05:21:44.143Z,1004.57
2018-05-21T05:22:44.114Z,1004.52
2018-05-21T05:23:44.083Z,1004.50
2018-05-21T05:24:44.068Z,1004.54
2018-05-21T05:25:44.040Z,1004.52
2018-05-21T05:26:44.041Z,1004.53
2018-05-21T05:27:43.990Z,1004.53
2018-05-21T05:28:43.967Z,1004.53
2018-05-21T05:29:43.946Z,1004.49
2018-05-21T05:30:43.915Z,1004.47
2018-05-21T05:31:43.889Z,1004.52
2018-05-21T05:32:43.865Z,1004.49
2018-05-21T05:33:43.835Z,1004.48
2018-05-21T05:34:43.817Z,1004.50
2018-05-21T05:35:43.796Z,1004.48
2018-05-21T05:36:43.770Z,1004.48
2018-05-21T05:37:43.749Z,1004.50
2018-05-21T05:38:43.720Z,1004.44
2018-05-21T05:39:43.687Z,1004.43
2018-05-21T05:40:43.674Z,1004.41
2018-05-21T05:41:43.638Z,1004.43
2018-05-21T05:42:43.622Z,1004.38
2018-05-21T05:43:43.596Z,1004.39
2018-05-21T05:44:43.593Z,1004.39
2018-05-21T05:45:43.556Z,1004.38
2018-05-21T05:46:43.516Z,1004.36
2018-05-21T05:47:43.496Z,1004.39
2018-05-21T05:48:43.477Z,1004.37
2018-05-21T05:49:43.440Z,1004.35
2018-05-21T05:50:43.423Z,1004.38
2018-05-21T05:51:43.395Z,1004.32
2018-05-21T05:52:43.370Z,1004.35
2018-05-21T05:53:43.345Z,1004.35
2018-05-21T05:54:43.324Z,1004.35
2018-05-21T05:55:43.304Z,1004.35
2018-05-21T05:56:43.279Z,1004.33
2018-05-21T05:57:43.254Z,1004.33
2018-05-21T05:58:43.219Z,1004.29
2018-05-21T05:59:43.207Z,1004.30
2018-05-21T06:00:43.179Z,1004.27
2018-05-21T06:01:43.148Z,1004.31
2018-05-21T06:02:43.142Z,1004.28
2018-05-21T06:03:43.124Z,1004.32
2018-05-21T06:04:43.074Z,1004.29
2018-05-21T06:05:43.056Z,1004.31
2018-05-21T06:06:43.027Z,1004.30
2018-05-21T06:07:43.001Z,1004.30
2018-05-21T06:08:42.970Z,1004.26
2018-05-21T06:09:42.953Z,1004.26
2018-05-21T06:10:42.932Z,1004.28
2018-05-21T06:11:42.907Z,1004.28
2018-05-21T06:12:42.884Z,1004.29
2018-05-21T06:13:42.911Z,1004.28
2018-05-21T06:14:42.831Z,1004.25
2018-05-21T06:15:42.823Z,1004.23
2018-05-21T06:16:42.775Z,1004.24
2018-05-21T06:17:42.755Z,1004.26
2018-05-21T06:18:42.749Z,1004.25
2018-05-21T06:19:42.704Z,1004.28
2018-05-21T06:20:42.687Z,1004.26
2018-05-21T06:21:42.660Z,1004.27
2018-05-21T06:22:42.632Z,1004.25
2018-05-21T06:23:42.606Z,1004.28
2018-05-21T06:24:42.586Z,1004.29
2018-05-21T06:25:42.563Z,1004.27
2018-05-21T06:26:42.528Z,1004.24
2018-05-21T06:27:42.515Z,1004.23
2018-05-21T06:28:42.479Z,1004.25
2018-05-21T06:29:42.463Z,1004.20
2018-05-21T06:30:42.439Z,1004.26
2018-05-21T06:31:42.407Z,1004.22
2018-05-21T06:32:42.385Z,1004.23
2018-05-21T06:33:42.390Z,1004.21
2018-05-21T06:34:42.345Z,1004.17
2018-05-21T06:35:42.315Z,1004.17
2018-05-21T06:36:42.287Z,1004.19
2018-05-21T06:37:42.279Z,1004.14
2018-05-21T06:38:42.242Z,1004.14
2018-05-21T06:39:42.212Z,1004.13
2018-05-21T06:40:42.193Z,1004.17
2018-05-21T06:41:42.171Z,1004.18
2018-05-21T06:42:42.141Z,1004.17
2018-05-21T06:43:42.114Z,1004.18
2018-05-21T06:44:42.107Z,1004.23
2018-05-21T06:45:42.728Z,1004.18
2018-05-21T06:46:42.047Z,1004.18
2018-05-21T06:47:42.051Z,1004.18
2018-05-21T06:48:42.001Z,1004.17
2018-05-21T06:49:41.967Z,1004.17
2018-05-21T06:50:41.946Z,1004.18
2018-05-21T06:51:41.917Z,1004.21
2018-05-21T06:52:41.901Z,1004.21
2018-05-21T06:53:41.872Z,1004.23
2018-05-21T06:54:41.853Z,1004.21
2018-05-21T06:55:41.835Z,1004.23
2018-05-21T06:56:41.796Z,1004.19
2018-05-21T06:57:41.780Z,1004.22
2018-05-21T06:58:41.750Z,1004.20
2018-05-21T06:59:41.804Z,1004.19
2018-05-21T07:00:41.707Z,1004.17
2018-05-21T07:01:41.686Z,1004.17
2018-05-21T07:02:41.652Z,1004.21
2018-05-21T07:03:41.633Z,1004.15
2018-05-21T07:04:41.612Z,1004.16
2018-05-21T07:05:41.583Z,1004.20
2018-05-21T07:06:41.561Z,1004.13
2018-05-21T07:07:41.539Z,1004.14
2018-05-21T07:08:41.503Z,1004.14
2018-05-21T07:09:41.484Z,1004.15
2018-05-21T07:10:41.467Z,1004.14
2018-05-21T07:11:41.445Z,1004.14
2018-05-21T07:12:41.414Z,1004.14
2018-05-21T07:13:41.389Z,1004.07
2018-05-21T07:14:41.362Z,1004.10
2018-05-21T07:15:41.342Z,1004.06
2018-05-21T07:16:41.310Z,1004.05
2018-05-21T07:17:41.299Z,1004.07
2018-05-21T07:18:41.268Z,1004.10
2018-05-21T07:19:41.239Z,1004.07
2018-05-21T07:20:41.216Z,1004.04
2018-05-21T07:21:41.201Z,1004.01
2018-05-21T07:22:41.175Z,1004.07
2018-05-21T07:23:41.144Z,1004.05
2018-05-21T07:24:41.121Z,1004.00
2018-05-21T07:25:41.093Z,1004.02
2018-05-21T07:26:41.074Z,1004.00
2018-05-21T07:27:41.048Z,1004.00
2018-05-21T07:28:41.027Z,1003.96
2018-05-21T07:29:41.007Z,1003.95
2018-05-21T07:30:40.980Z,1003.98
2018-05-21T07:31:40.955Z,1003.95
2018-05-21T07:32:40.927Z,1003.90
2018-05-21T07:33:40.905Z,1003.88
2018-05-21T07:34:40.882Z,1003.86
2018-05-21T07:35:40.854Z,1003.87
2018-05-21T07:36:40.844Z,1003.81
2018-05-21T07:37:40.810Z,1003.80
2018-05-21T07:38:40.793Z,1003.77
2018-05-21T07:39:40.767Z,1003.77
2018-05-21T07:40:40.737Z,1003.75
2018-05-21T07:41:40.709Z,1003.78
2018-05-21T07:42:40.689Z,1003.75
2018-05-21T07:43:40.665Z,1003.73
2018-05-21T07:44:40.641Z,1003.73
2018-05-21T07:45:40.617Z,1003.74
2018-05-21T07:46:40.591Z,1003.72
2018-05-21T07:47:40.569Z,1003.72
2018-05-21T07:48:40.556Z,1003.75
2018-05-21T07:49:40.516Z,1003.74
2018-05-21T07:50:40.504Z,1003.73
2018-05-21T07:51:40.575Z,1003.71
2018-05-21T07:52:40.444Z,1003.69
2018-05-21T07:53:40.429Z,1003.71
2018-05-21T07:54:40.398Z,1003.69
2018-05-21T07:55:40.373Z,1003.73
2018-05-21T07:56:40.359Z,1003.77
2018-05-21T07:57:40.327Z,1003.74
2018-05-21T07:58:40.305Z,1003.73
2018-05-21T07:59:40.287Z,1003.71
2018-05-21T08:00:40.252Z,1003.72
2018-05-21T08:01:40.239Z,1003.68
2018-05-21T08:02:40.213Z,1003.67
2018-05-21T08:03:40.194Z,1003.66
2018-05-21T08:04:40.161Z,1003.66
2018-05-21T08:05:40.138Z,1003.64
2018-05-21T08:06:40.118Z,1003.66
2018-05-21T08:07:40.090Z,1003.63
2018-05-21T08:08:40.066Z,1003.65
2018-05-21T08:09:40.041Z,1003.66
2018-05-21T08:10:40.020Z,1003.65
2018-05-21T08:11:40.004Z,1003.64
2018-05-21T08:12:39.976Z,1003.63
2018-05-21T08:13:39.954Z,1003.64
2018-05-21T08:14:39.951Z,1003.61
2018-05-21T08:15:39.903Z,1003.59
2018-05-21T08:16:39.882Z,1003.58
2018-05-21T08:17:39.857Z,1003.58
2018-05-21T08:18:39.829Z,1003.57
2018-05-21T08:19:39.809Z,1003.54
2018-05-21T08:20:39.803Z,1003.54
2018-05-21T08:21:39.761Z,1003.54
2018-05-21T08:22:39.743Z,1003.54
2018-05-21T08:23:39.719Z,1003.53
2018-05-21T08:24:39.686Z,1003.47
2018-05-21T08:25:39.665Z,1003.45
2018-05-21T08:26:39.639Z,1003.46
2018-05-21T08:27:39.623Z,1003.47
2018-05-21T08:28:39.598Z,1003.49
2018-05-21T08:29:39.573Z,1003.47
2018-05-21T08:30:39.549Z,1003.45
2018-05-21T08:31:39.536Z,1003.46
2018-05-21T08:32:39.494Z,1003.45
2018-05-21T08:33:39.483Z,1003.39
2018-05-21T08:34:39.453Z,1003.38
2018-05-21T08:35:39.428Z,1003.34
2018-05-21T08:36:39.414Z,1003.34
2018-05-21T08:37:39.388Z,1003.34
2018-05-21T08:38:39.355Z,1003.36
2018-05-21T08:39:39.353Z,1003.31
2018-05-21T08:40:39.312Z,1003.33
2018-05-21T08:41:39.287Z,1003.23
2018-05-21T08:42:39.345Z,1003.31
2018-05-21T08:43:39.243Z,1003.32
2018-05-21T08:44:39.221Z,1003.31
2018-05-21T08:45:39.202Z,1003.26
2018-05-21T08:46:39.171Z,1003.27
2018-05-21T08:47:39.146Z,1003.28
2018-05-21T08:48:39.212Z,1003.23
2018-05-21T08:49:39.109Z,1003.24
2018-05-21T08:50:39.081Z,1003.26
2018-05-21T08:51:39.758Z,1003.30
2018-05-21T08:52:39.032Z,1003.24
2018-05-21T08:53:39.005Z,1003.23
2018-05-21T08:54:38.994Z,1003.20
2018-05-21T08:55:38.964Z,1003.18
2018-05-21T08:56:39.025Z,1003.16
2018-05-21T08:57:38.926Z,1003.11
2018-05-21T08:58:38.974Z,1003.09
2018-05-21T08:59:38.868Z,1003.09
2018-05-21T09:00:38.848Z,1003.11
2018-05-21T09:01:38.835Z,1003.12
2018-05-21T09:02:38.800Z,1003.04
2018-05-21T09:03:38.774Z,1003.05
2018-05-21T09:04:38.850Z,1003.00
2018-05-21T09:05:38.739Z,1003.02
2018-05-21T09:06:38.708Z,1003.03
2018-05-21T09:07:38.687Z,1003.05
2018-05-21T09:08:38.667Z,1003.03
2018-05-21T09:09:38.637Z,1003.05
2018-05-21T09:10:38.621Z,1002.96
2018-05-21T09:11:38.597Z,1003.02
2018-05-21T09:12:38.571Z,1003.01
2018-05-21T09:13:38.546Z,1003.01
2018-05-21T09:14:38.519Z,1003.03
2018-05-21T09:15:38.498Z,1002.99
2018-05-21T09:16:38.496Z,1003.01
2018-05-21T09:17:38.459Z,1002.95
2018-05-21T09:18:38.431Z,1002.92
2018-05-21T09:19:38.405Z,1002.90
2018-05-21T09:20:38.414Z,1002.89
2018-05-21T09:21:38.364Z,1002.86
2018-05-21T09:22:38.379Z,1002.86
2018-05-21T09:23:38.314Z,1002.86
2018-05-21T09:24:38.392Z,1002.91
2018-05-21T09:25:38.268Z,1002.84
2018-05-21T09:26:38.255Z,1002.81
2018-05-21T09:27:38.219Z,1002.85
2018-05-21T09:28:38.203Z,1002.82
2018-05-21T09:29:38.175Z,1002.81
2018-05-21T09:30:38.153Z,1002.79
2018-05-21T09:31:38.137Z,1002.72
2018-05-21T09:32:38.104Z,1002.74
2018-05-21T09:33:38.095Z,1002.70
2018-05-21T09:34:38.126Z,1002.69
2018-05-21T09:35:38.036Z,1002.67
2018-05-21T09:36:38.022Z,1002.72
2018-05-21T09:37:37.992Z,1002.72
2018-05-21T09:38:37.978Z,1002.72
2018-05-21T09:39:37.943Z,1002.72
2018-05-21T09:40:37.929Z,1002.71
2018-05-21T09:41:37.898Z,1002.69
2018-05-21T09:42:37.877Z,1002.68
2018-05-21T09:43:37.858Z,1002.66
2018-05-21T09:44:37.826Z,1002.66
2018-05-21T09:45:37.819Z,1002.75
2018-05-21T09:46:37.780Z,1002.64
2018-05-21T09:47:37.776Z,1002.65
2018-05-21T09:48:37.862Z,1002.61
2018-05-21T09:49:37.744Z,1002.60
2018-05-21T09:50:37.745Z,1002.61
2018-05-21T09:51:37.683Z,1002.62
2018-05-21T09:52:37.641Z,1002.64
2018-05-21T09:53:37.633Z,1002.57
2018-05-21T09:54:37.605Z,1002.58
2018-05-21T09:55:37.585Z,1002.53
2018-05-21T09:56:37.629Z,1002.61
2018-05-21T09:57:37.539Z,1002.52
2018-05-21T09:58:37.519Z,1002.53
2018-05-21T09:59:37.497Z,1002.49
2018-05-21T10:00:37.464Z,1002.46
2018-05-21T10:01:37.436Z,1002.51
2018-05-21T10:02:37.464Z,1002.46
2018-05-21T10:03:37.399Z,1002.47
2018-05-21T10:04:37.373Z,1002.44
2018-05-21T10:05:37.347Z,1002.48
2018-05-21T10:06:37.338Z,1002.44
2018-05-21T10:07:37.306Z,1002.40
2018-05-21T10:08:37.279Z,1002.42
2018-05-21T10:09:37.261Z,1002.46
2018-05-21T10:10:37.234Z,1002.40
2018-05-21T10:11:37.209Z,1002.39
2018-05-21T10:12:37.196Z,1002.43
2018-05-21T10:13:37.169Z,1002.41
2018-05-21T10:14:37.782Z,1002.33
2018-05-21T10:15:37.127Z,1002.36
2018-05-21T10:16:37.100Z,1002.35
2018-05-21T10:17:37.091Z,1002.33
2018-05-21T10:18:37.057Z,1002.34
2018-05-21T10:19:37.027Z,1002.37
2018-05-21T10:20:37.023Z,1002.38
2018-05-21T10:21:36.994Z,1002.31
2018-05-21T10:22:36.968Z,1002.32
2018-05-21T10:23:36.946Z,1002.33
2018-05-21T10:24:36.917Z,1002.37
2018-05-21T10:25:36.903Z,1002.30
2018-05-21T10:26:36.867Z,1002.31
2018-05-21T10:27:36.849Z,1002.27
2018-05-21T10:28:36.841Z,1002.26
2018-05-21T10:29:36.835Z,1002.32
2018-05-21T10:30:36.777Z,1002.23
2018-05-21T10:31:36.766Z,1002.20
2018-05-21T10:32:36.744Z,1002.22
2018-05-21T10:33:36.715Z,1002.17
2018-05-21T10:34:36.697Z,1002.22
2018-05-21T10:35:36.674Z,1002.20
2018-05-21T10:36:36.724Z,1002.19
2018-05-21T10:37:36.626Z,1002.15
2018-05-21T10:38:36.601Z,1002.17
2018-05-21T10:39:36.573Z,1002.11
2018-05-21T10:40:36.559Z,1002.16
2018-05-21T10:41:36.528Z,1002.14
2018-05-21T10:42:36.515Z,1002.13
2018-05-21T10:43:36.487Z,1002.08
2018-05-21T10:44:36.472Z,1002.02
2018-05-21T10:45:36.441Z,1002.02
2018-05-21T10:46:36.427Z,1002.02
2018-05-21T10:47:36.393Z,1002.04
2018-05-21T10:48:36.424Z,1002.02
2018-05-21T10:49:36.350Z,1002.03
2018-05-21T10:50:36.329Z,1001.94
2018-05-21T10:51:36.308Z,1001.95
2018-05-21T10:52:36.313Z,1001.89
2018-05-21T10:53:36.262Z,1001.92
2018-05-21T10:54:36.235Z,1001.87
2018-05-21T10:55:36.219Z,1001.89
2018-05-21T10:56:36.188Z,1001.84
2018-05-21T10:57:36.219Z,1001.80
2018-05-21T10:58:36.150Z,1001.82
2018-05-21T10:59:36.123Z,1001.77
2018-05-21T11:00:36.109Z,1001.78
2018-05-21T11:01:36.083Z,1001.76
2018-05-21T11:02:36.064Z,1001.76
2018-05-21T11:03:36.038Z,1001.79
2018-05-21T11:04:36.095Z,1001.79
2018-05-21T11:05:35.984Z,1001.73
2018-05-21T11:06:35.975Z,1001.73
2018-05-21T11:07:35.947Z,1001.77
2018-05-21T11:08:35.917Z,1001.77
2018-05-21T11:09:36.021Z,1001.90
2018-05-21T11:10:35.877Z,1001.82
2018-05-21T11:11:35.864Z,1001.79
2018-05-21T11:12:35.831Z,1001.70
2018-05-21T11:13:35.821Z,1001.69
2018-05-21T11:14:35.786Z,1001.69
2018-05-21T11:15:35.763Z,1001.68
2018-05-21T11:16:35.747Z,1001.68
2018-05-21T11:17:35.736Z,1001.68
2018-05-21T11:18:35.702Z,1001.64
2018-05-21T11:19:35.681Z,1001.64
2018-05-21T11:20:35.652Z,1001.58
2018-05-21T11:21:35.632Z,1001.61
2018-05-21T11:22:35.614Z,1001.61
2018-05-21T11:23:35.587Z,1001.60
2018-05-21T11:24:35.616Z,1001.66
2018-05-21T11:25:35.546Z,1001.58
2018-05-21T11:26:35.521Z,1001.63
2018-05-21T11:27:35.499Z,1001.56
2018-05-21T11:28:35.478Z,1001.55
2018-05-21T11:29:35.462Z,1001.58
2018-05-21T11:30:35.430Z,1001.56
2018-05-21T11:31:35.434Z,1001.63
2018-05-21T11:32:35.385Z,1001.51
2018-05-21T11:33:35.364Z,1001.50
2018-05-21T11:34:35.362Z,1001.47
2018-05-21T11:35:35.317Z,1001.42
2018-05-21T11:36:35.343Z,1001.39
2018-05-21T11:37:35.279Z,1001.39
2018-05-21T11:38:35.250Z,1001.38
2018-05-21T11:39:35.233Z,1001.30
2018-05-21T11:40:35.212Z,1001.35
2018-05-21T11:41:35.189Z,1001.31
2018-05-21T11:42:35.162Z,1001.30
2018-05-21T11:43:35.145Z,1001.37
2018-05-21T11:44:35.120Z,1001.36
2018-05-21T11:45:35.105Z,1001.37
2018-05-21T11:46:35.070Z,1001.34
2018-05-21T11:47:35.061Z,1001.31
2018-05-21T11:48:35.031Z,1001.32
2018-05-21T11:49:35.014Z,1001.31
2018-05-21T11:50:35.064Z,1001.34
2018-05-21T11:51:34.970Z,1001.33
2018-05-21T11:52:34.973Z,1001.26
2018-05-21T11:53:34.925Z,1001.26
2018-05-21T11:54:34.903Z,1001.25
2018-05-21T11:55:34.882Z,1001.30
2018-05-21T11:56:34.857Z,1001.27
2018-05-21T11:57:34.836Z,1001.25
2018-05-21T11:58:34.811Z,1001.28
2018-05-21T11:59:34.795Z,1001.23
2018-05-21T12:00:34.773Z,1001.21
2018-05-21T12:01:34.752Z,1001.19
2018-05-21T12:02:34.756Z,1001.13
2018-05-21T12:03:34.710Z,1001.18
2018-05-21T12:04:34.678Z,1001.25
2018-05-21T12:05:34.663Z,1001.22